Koki Maru No.30 — JD2396 — position and weather

sailwx.info

Track history (hours):
 
Tides and Currents Weather Stations Pressure Air Temp Water Temp Dewpoint Dewpoint Depression Visibility Wind Speed Wind Dir Waves Ship Positions

Koki Maru No.30

Last reported at 2018-Feb-24 14:56 UTC. Time now 2018-Feb-25 03:53 UTC.
Position N 33°47' E 135°05'.

Length 53 m; draft 3 m.

Type: Tanker. MMSI: 431000173.

Date/timePositionNaut miles runAvg speedWind from/ knotsBaromVisibWave heightAir tempDewpointWater temp
2018-Feb-24 14:56N 33°47' E 135°05'510.9
2018-Feb-24 14:30N 33°51' E 135°01'510.9
2018-Feb-24 14:00N 33°55' E 134°57'611.0
2018-Feb-24 13:28N 33°59' E 134°53'511.3
2018-Feb-24 13:00N 34°03' E 134°49'611.4
2018-Feb-24 12:29N 34°08' E 134°44'612.0
2018-Feb-24 11:59N 34°13' E 134°40'611.4
2018-Feb-24 11:28N 34°17' E 134°34'510.9
2018-Feb-24 11:00N 34°18' E 134°28'611.2
2018-Feb-24 10:30N 34°20' E 134°22'20 0.8
2018-Feb-23 09:18N 34°31' E 134°01'0 0.0
2018-Feb-22 09:11N 34°32' E 134°01'5 0.2
2018-Feb-21 10:12N 34°27' E 134°03'1410.3
2018-Feb-21 08:50N 34°25' E 134°20'411.1
2018-Feb-21 08:29N 34°26' E 134°24'511.3
2018-Feb-21 08:00N 34°28' E 134°31'611.4
2018-Feb-21 07:30N 34°30' E 134°37'611.3
2018-Feb-21 07:00N 34°32' E 134°44'611.4
2018-Feb-21 06:30N 34°34' E 134°50'511.2
2018-Feb-21 06:01N 34°37' E 134°56'510.7
2018-Feb-21 05:30N 34°37' E 135°03'5 9.8
2018-Feb-21 05:00N 34°32' E 135°06'611.6
2018-Feb-21 04:30N 34°27' E 135°05'611.6
2018-Feb-21 04:00N 34°21' E 135°04'611.0
2018-Feb-21 03:30N 34°15' E 135°03'4 9.0
2018-Feb-21 03:00N 34°13' E 135°08'1 1.5
2018-Feb-21 02:31N 34°13' E 135°09'0 0.0
2018-Feb-21 02:00N 34°13' E 135°09'0 0.0
2018-Feb-21 01:30N 34°13' E 135°09'0 0.0
2018-Feb-21 01:01N 34°13' E 135°09'0 0.1
2018-Feb-21 00:30N 34°13' E 135°09'1 2.8
2018-Feb-21 00:00N 34°12' E 135°07'0 0.0
2018-Feb-20 23:31N 34°12' E 135°07'0 0.0
2018-Feb-20 23:00N 34°12' E 135°07'0 0.0
2018-Feb-20 22:30N 34°12' E 135°07'0 0.1
2018-Feb-20 22:00N 34°12' E 135°08'0 0.0
2018-Feb-20 21:30N 34°12' E 135°08'1 2.3
2018-Feb-20 21:01N 34°13' E 135°06'510.9
2018-Feb-20 20:31N 34°12' E 134°60'510.4
2018-Feb-20 20:00N 34°11' E 134°53'510.7
2018-Feb-20 19:30N 34°11' E 134°47'510.7
2018-Feb-20 18:59N 34°12' E 134°40'611.8
2018-Feb-20 18:28N 34°17' E 134°35'511.0
2018-Feb-20 18:00N 34°19' E 134°29'611.0
2018-Feb-20 17:29N 34°21' E 134°23'83 9.0
2018-Feb-20 08:22N 34°01' E 132°46'3 9.1
2018-Feb-20 07:59N 33°58' E 132°44'4 9.0
2018-Feb-20 07:30N 33°55' E 132°40'5 9.5
2018-Feb-20 06:57N 33°53' E 132°34'910.1
2018-Feb-20 06:07N 33°50' E 132°24'110.2
2018-Feb-20 06:00N 33°50' E 132°23'610.1
2018-Feb-20 05:23N 33°49' E 132°16'410.5
2018-Feb-20 05:00N 33°49' E 132°11'610.6
2018-Feb-20 04:29N 33°46' E 132°05'610.1
2018-Feb-20 03:51N 33°49' E 131°58'411.3
2018-Feb-20 03:31N 33°51' E 131°55'611.0
2018-Feb-20 03:00N 33°55' E 131°49'510.8
2018-Feb-20 02:30N 33°59' E 131°45'5 2.4
2018-Feb-20 00:17N 34°03' E 131°48'1 3.0
2018-Feb-19 23:55N 34°03' E 131°47'0 0.0
2018-Feb-19 11:34N 34°03' E 131°47'0 0.6
2018-Feb-19 11:29N 34°03' E 131°47'510.0
2018-Feb-19 11:00N 33°58' E 131°46'1112.0
2018-Feb-19 10:07N 33°51' E 131°56'111.6
2018-Feb-19 09:59N 33°50' E 131°57'612.1
2018-Feb-19 09:30N 33°46' E 132°03'611.9
2018-Feb-19 08:59N 33°49' E 132°09'711.7
2018-Feb-19 08:24N 33°50' E 132°17'1212.2
2018-Feb-19 07:26N 33°53' E 132°31'712.8
2018-Feb-19 06:54N 33°56' E 132°39'613.3
2018-Feb-19 06:28N 33°59' E 132°44'3 0.1
2018-Feb-18 07:13N 34°01' E 132°46'2 8.7
2018-Feb-18 06:58N 33°59' E 132°45'4 8.8
2018-Feb-18 06:30N 33°56' E 132°41'5 9.2
2018-Feb-18 06:00N 33°54' E 132°36'11 9.9
2018-Feb-18 04:54N 33°50' E 132°24'4 9.8
2018-Feb-18 04:29N 33°50' E 132°19'610.7
2018-Feb-18 03:54N 33°50' E 132°12'4 9.7
2018-Feb-18 03:29N 33°50' E 132°07'1410.7
2018-Feb-18 02:11N 33°55' E 131°51'211.0
2018-Feb-18 02:00N 33°56' E 131°49'510.2
2018-Feb-18 01:29N 33°60' E 131°45'4 1.4
2018-Feb-17 22:38N 34°03' E 131°48'1 1.3
2018-Feb-17 22:00N 34°03' E 131°47'0 0.0
2018-Feb-17 21:06N 34°03' E 131°47'0 0.0
2018-Feb-17 20:57N 34°03' E 131°47'0 0.0
2018-Feb-17 20:24N 34°03' E 131°47'0 0.0
2018-Feb-17 20:00N 34°03' E 131°47'0 0.0
2018-Feb-17 19:24N 34°03' E 131°47'0 0.0
2018-Feb-17 18:57N 34°03' E 131°47'0 0.0
2018-Feb-17 17:17N 34°03' E 131°47'0 0.0
2018-Feb-17 16:57N 34°03' E 131°47'0 0.0
2018-Feb-17 16:07N 34°03' E 131°47'0 0.0
2018-Feb-17 15:44N 34°03' E 131°47'0 0.0
2018-Feb-17 15:20N 34°03' E 131°47'0 0.0
2018-Feb-17 14:53N 34°03' E 131°47'0 0.0
2018-Feb-17 14:28N 34°03' E 131°47'0 0.0
2018-Feb-17 13:11N 34°03' E 131°47'0 0.0
2018-Feb-17 12:46N 34°03' E 131°47'0 0.2
2018-Feb-17 12:29N 34°03' E 131°47'0 0.0
2018-Feb-17 11:55N 34°03' E 131°47'3 7.3
2018-Feb-17 11:30N 33°60' E 131°45'1911.2
2018-Feb-17 09:48N 33°46' E 132°02'410.5
2018-Feb-17 09:27N 33°47' E 132°06'711.1
2018-Feb-17 08:48N 33°50' E 132°14'28 1.4
2018-Feb-16 13:06N 34°00' E 132°45'112.6
2018-Feb-16 13:00N 33°59' E 132°44'612.7
2018-Feb-16 12:30N 33°55' E 132°39'1312.2
2018-Feb-16 11:26N 33°50' E 132°24'512.2
2018-Feb-16 11:00N 33°50' E 132°18'711.9
2018-Feb-16 10:25N 33°48' E 132°09'511.7
2018-Feb-16 10:00N 33°46' E 132°04'5 9.3
2018-Feb-16 09:30N 33°48' E 131°59'5 9.8
2018-Feb-16 09:00N 33°51' E 131°55'510.8
2018-Feb-16 08:30N 33°55' E 131°50'510.7
2018-Feb-16 08:00N 33°59' E 131°45'5 9.6
2018-Feb-16 07:28N 34°03' E 131°48'0 0.0
2018-Feb-16 07:00N 34°03' E 131°48'0 0.0
2018-Feb-16 06:15N 34°03' E 131°48'2 7.0
2018-Feb-16 05:59N 34°02' E 131°47'511.0
2018-Feb-16 05:30N 33°57' E 131°45'611.4
2018-Feb-16 05:00N 33°51' E 131°46'711.1
2018-Feb-16 04:24N 33°44' E 131°48'510.9
2018-Feb-16 03:58N 33°40' E 131°49'510.4
2018-Feb-16 03:30N 33°35' E 131°50'510.4
2018-Feb-16 02:59N 33°30' E 131°51'510.8
2018-Feb-16 02:28N 33°25' E 131°53'710.9
2018-Feb-16 01:52N 33°18' E 131°55'411.0
2018-Feb-16 01:28N 33°14' E 131°54'810.0
2018-Feb-16 00:42N 33°07' E 131°49'0 0.4
2018-Feb-16 00:30N 33°07' E 131°49'0 0.0
2018-Feb-16 00:00N 33°07' E 131°49'0 0.0
2018-Feb-15 23:30N 33°07' E 131°49'0 0.0
2018-Feb-15 23:00N 33°07' E 131°49'0 0.0
2018-Feb-15 22:30N 33°07' E 131°49'0 0.0
2018-Feb-15 22:00N 33°07' E 131°49'16 1.3
2018-Feb-15 09:52N 33°20' E 132°00'1810.3
2018-Feb-15 08:08N 33°34' E 132°14'211.0
2018-Feb-15 07:58N 33°35' E 132°16'511.1
2018-Feb-15 07:29N 33°39' E 132°20'711.5
2018-Feb-15 06:52N 33°44' E 132°26'611.5
2018-Feb-15 06:22N 33°48' E 132°30'512.2
2018-Feb-15 05:57N 33°52' E 132°34'612.5
2018-Feb-15 05:30N 33°56' E 132°40'  
Track history (hours):
 
Tides and Currents Weather Stations Pressure Air Temp Water Temp Dewpoint Dewpoint Depression Visibility Wind Speed Wind Dir Waves Ship Positions

Koki Maru No.30

Last reported at 2018-Feb-24 14:56 UTC. Time now 2018-Feb-25 03:53 UTC.
Position N 33°47' E 135°05'.

Length 53 m; draft 3 m.

Type: Tanker. MMSI: 431000173.

Date/timePositionNaut miles runAvg speedWind from/ knotsBaromVisibWave heightAir tempDewpointWater temp
2018-Feb-24 14:56N 33°47' E 135°05'510.9
2018-Feb-24 14:30N 33°51' E 135°01'510.9
2018-Feb-24 14:00N 33°55' E 134°57'611.0
2018-Feb-24 13:28N 33°59' E 134°53'511.3
2018-Feb-24 13:00N 34°03' E 134°49'611.4
2018-Feb-24 12:29N 34°08' E 134°44'612.0
2018-Feb-24 11:59N 34°13' E 134°40'611.4
2018-Feb-24 11:28N 34°17' E 134°34'510.9
2018-Feb-24 11:00N 34°18' E 134°28'611.2
2018-Feb-24 10:30N 34°20' E 134°22'20 0.8
2018-Feb-23 09:18N 34°31' E 134°01'0 0.0
2018-Feb-22 09:11N 34°32' E 134°01'5 0.2
2018-Feb-21 10:12N 34°27' E 134°03'1410.3
2018-Feb-21 08:50N 34°25' E 134°20'411.1
2018-Feb-21 08:29N 34°26' E 134°24'511.3
2018-Feb-21 08:00N 34°28' E 134°31'611.4
2018-Feb-21 07:30N 34°30' E 134°37'611.3
2018-Feb-21 07:00N 34°32' E 134°44'611.4
2018-Feb-21 06:30N 34°34' E 134°50'511.2
2018-Feb-21 06:01N 34°37' E 134°56'510.7
2018-Feb-21 05:30N 34°37' E 135°03'5 9.8
2018-Feb-21 05:00N 34°32' E 135°06'611.6
2018-Feb-21 04:30N 34°27' E 135°05'611.6
2018-Feb-21 04:00N 34°21' E 135°04'611.0
2018-Feb-21 03:30N 34°15' E 135°03'4 9.0
2018-Feb-21 03:00N 34°13' E 135°08'1 1.5
2018-Feb-21 02:31N 34°13' E 135°09'0 0.0
2018-Feb-21 02:00N 34°13' E 135°09'0 0.0
2018-Feb-21 01:30N 34°13' E 135°09'0 0.0
2018-Feb-21 01:01N 34°13' E 135°09'0 0.1
2018-Feb-21 00:30N 34°13' E 135°09'1 2.8
2018-Feb-21 00:00N 34°12' E 135°07'0 0.0
2018-Feb-20 23:31N 34°12' E 135°07'0 0.0
2018-Feb-20 23:00N 34°12' E 135°07'0 0.0
2018-Feb-20 22:30N 34°12' E 135°07'0 0.1
2018-Feb-20 22:00N 34°12' E 135°08'0 0.0
2018-Feb-20 21:30N 34°12' E 135°08'1 2.3
2018-Feb-20 21:01N 34°13' E 135°06'510.9
2018-Feb-20 20:31N 34°12' E 134°60'510.4
2018-Feb-20 20:00N 34°11' E 134°53'510.7
2018-Feb-20 19:30N 34°11' E 134°47'510.7
2018-Feb-20 18:59N 34°12' E 134°40'611.8
2018-Feb-20 18:28N 34°17' E 134°35'511.0
2018-Feb-20 18:00N 34°19' E 134°29'611.0
2018-Feb-20 17:29N 34°21' E 134°23'83 9.0
2018-Feb-20 08:22N 34°01' E 132°46'3 9.1
2018-Feb-20 07:59N 33°58' E 132°44'4 9.0
2018-Feb-20 07:30N 33°55' E 132°40'5 9.5
2018-Feb-20 06:57N 33°53' E 132°34'910.1
2018-Feb-20 06:07N 33°50' E 132°24'110.2
2018-Feb-20 06:00N 33°50' E 132°23'610.1
2018-Feb-20 05:23N 33°49' E 132°16'410.5
2018-Feb-20 05:00N 33°49' E 132°11'610.6
2018-Feb-20 04:29N 33°46' E 132°05'610.1
2018-Feb-20 03:51N 33°49' E 131°58'411.3
2018-Feb-20 03:31N 33°51' E 131°55'611.0
2018-Feb-20 03:00N 33°55' E 131°49'510.8
2018-Feb-20 02:30N 33°59' E 131°45'5 2.4
2018-Feb-20 00:17N 34°03' E 131°48'1 3.0
2018-Feb-19 23:55N 34°03' E 131°47'0 0.0
2018-Feb-19 11:34N 34°03' E 131°47'0 0.6
2018-Feb-19 11:29N 34°03' E 131°47'510.0
2018-Feb-19 11:00N 33°58' E 131°46'1112.0
2018-Feb-19 10:07N 33°51' E 131°56'111.6
2018-Feb-19 09:59N 33°50' E 131°57'612.1
2018-Feb-19 09:30N 33°46' E 132°03'611.9
2018-Feb-19 08:59N 33°49' E 132°09'711.7
2018-Feb-19 08:24N 33°50' E 132°17'1212.2
2018-Feb-19 07:26N 33°53' E 132°31'712.8
2018-Feb-19 06:54N 33°56' E 132°39'613.3
2018-Feb-19 06:28N 33°59' E 132°44'3 0.1
2018-Feb-18 07:13N 34°01' E 132°46'2 8.7
2018-Feb-18 06:58N 33°59' E 132°45'4 8.8
2018-Feb-18 06:30N 33°56' E 132°41'5 9.2
2018-Feb-18 06:00N 33°54' E 132°36'11 9.9
2018-Feb-18 04:54N 33°50' E 132°24'4 9.8
2018-Feb-18 04:29N 33°50' E 132°19'610.7
2018-Feb-18 03:54N 33°50' E 132°12'4 9.7
2018-Feb-18 03:29N 33°50' E 132°07'1410.7
2018-Feb-18 02:11N 33°55' E 131°51'211.0
2018-Feb-18 02:00N 33°56' E 131°49'510.2
2018-Feb-18 01:29N 33°60' E 131°45'4 1.4
2018-Feb-17 22:38N 34°03' E 131°48'1 1.3
2018-Feb-17 22:00N 34°03' E 131°47'0 0.0
2018-Feb-17 21:06N 34°03' E 131°47'0 0.0
2018-Feb-17 20:57N 34°03' E 131°47'0 0.0
2018-Feb-17 20:24N 34°03' E 131°47'0 0.0
2018-Feb-17 20:00N 34°03' E 131°47'0 0.0
2018-Feb-17 19:24N 34°03' E 131°47'0 0.0
2018-Feb-17 18:57N 34°03' E 131°47'0 0.0
2018-Feb-17 17:17N 34°03' E 131°47'0 0.0
2018-Feb-17 16:57N 34°03' E 131°47'0 0.0
2018-Feb-17 16:07N 34°03' E 131°47'0 0.0
2018-Feb-17 15:44N 34°03' E 131°47'0 0.0
2018-Feb-17 15:20N 34°03' E 131°47'0 0.0
2018-Feb-17 14:53N 34°03' E 131°47'0 0.0
2018-Feb-17 14:28N 34°03' E 131°47'0 0.0
2018-Feb-17 13:11N 34°03' E 131°47'0 0.0
2018-Feb-17 12:46N 34°03' E 131°47'0 0.2
2018-Feb-17 12:29N 34°03' E 131°47'0 0.0
2018-Feb-17 11:55N 34°03' E 131°47'3 7.3
2018-Feb-17 11:30N 33°60' E 131°45'1911.2
2018-Feb-17 09:48N 33°46' E 132°02'410.5
2018-Feb-17 09:27N 33°47' E 132°06'711.1
2018-Feb-17 08:48N 33°50' E 132°14'28 1.4
2018-Feb-16 13:06N 34°00' E 132°45'112.6
2018-Feb-16 13:00N 33°59' E 132°44'612.7
2018-Feb-16 12:30N 33°55' E 132°39'1312.2
2018-Feb-16 11:26N 33°50' E 132°24'512.2
2018-Feb-16 11:00N 33°50' E 132°18'711.9
2018-Feb-16 10:25N 33°48' E 132°09'511.7
2018-Feb-16 10:00N 33°46' E 132°04'5 9.3
2018-Feb-16 09:30N 33°48' E 131°59'5 9.8
2018-Feb-16 09:00N 33°51' E 131°55'510.8
2018-Feb-16 08:30N 33°55' E 131°50'510.7
2018-Feb-16 08:00N 33°59' E 131°45'5 9.6
2018-Feb-16 07:28N 34°03' E 131°48'0 0.0
2018-Feb-16 07:00N 34°03' E 131°48'0 0.0
2018-Feb-16 06:15N 34°03' E 131°48'2 7.0
2018-Feb-16 05:59N 34°02' E 131°47'511.0
2018-Feb-16 05:30N 33°57' E 131°45'611.4
2018-Feb-16 05:00N 33°51' E 131°46'711.1
2018-Feb-16 04:24N 33°44' E 131°48'510.9
2018-Feb-16 03:58N 33°40' E 131°49'510.4
2018-Feb-16 03:30N 33°35' E 131°50'510.4
2018-Feb-16 02:59N 33°30' E 131°51'510.8
2018-Feb-16 02:28N 33°25' E 131°53'710.9
2018-Feb-16 01:52N 33°18' E 131°55'411.0
2018-Feb-16 01:28N 33°14' E 131°54'810.0
2018-Feb-16 00:42N 33°07' E 131°49'0 0.4
2018-Feb-16 00:30N 33°07' E 131°49'0 0.0
2018-Feb-16 00:00N 33°07' E 131°49'0 0.0
2018-Feb-15 23:30N 33°07' E 131°49'0 0.0
2018-Feb-15 23:00N 33°07' E 131°49'0 0.0
2018-Feb-15 22:30N 33°07' E 131°49'0 0.0
2018-Feb-15 22:00N 33°07' E 131°49'16 1.3
2018-Feb-15 09:52N 33°20' E 132°00'1810.3
2018-Feb-15 08:08N 33°34' E 132°14'211.0
2018-Feb-15 07:58N 33°35' E 132°16'511.1
2018-Feb-15 07:29N 33°39' E 132°20'711.5
2018-Feb-15 06:52N 33°44' E 132°26'611.5
2018-Feb-15 06:22N 33°48' E 132°30'512.2
2018-Feb-15 05:57N 33°52' E 132°34'612.5
2018-Feb-15 05:30N 33°56' E 132°40'  

Dump ship's entire track history